createdAt,value
2019-03-31T00:01:54.262Z,14.00
2019-03-31T00:04:24.053Z,13.90
2019-03-31T00:06:55.287Z,13.90
2019-03-31T00:09:26.733Z,13.60
2019-03-31T00:11:58.009Z,13.70
2019-03-31T00:14:29.189Z,13.70
2019-03-31T00:17:00.335Z,13.60
2019-03-31T00:19:31.427Z,13.60
2019-03-31T00:22:02.695Z,13.50
2019-03-31T00:24:33.953Z,13.40
2019-03-31T00:27:05.143Z,13.40
2019-03-31T00:29:36.302Z,13.30
2019-03-31T00:32:07.557Z,13.20
2019-03-31T00:34:38.630Z,13.10
2019-03-31T00:37:09.732Z,13.00
2019-03-31T00:39:40.883Z,12.90
2019-03-31T00:42:11.972Z,12.80
2019-03-31T00:44:43.187Z,12.70
2019-03-31T00:47:14.405Z,12.70
2019-03-31T00:49:46.472Z,12.60
2019-03-31T00:52:18.291Z,12.50
2019-03-31T00:54:49.420Z,12.40
2019-03-31T00:57:20.659Z,12.50
2019-03-31T00:59:51.806Z,12.40
2019-03-31T01:02:26.435Z,12.30
2019-03-31T01:04:57.586Z,12.30
2019-03-31T01:07:29.276Z,12.10
2019-03-31T01:10:00.520Z,12.10
2019-03-31T01:12:32.634Z,12.00
2019-03-31T01:15:06.162Z,12.10
2019-03-31T01:17:37.484Z,12.10
2019-03-31T01:20:09.188Z,12.00
2019-03-31T01:22:40.369Z,12.00
2019-03-31T01:25:11.523Z,12.00
2019-03-31T01:27:43.002Z,12.00
2019-03-31T01:30:15.884Z,12.00
2019-03-31T01:32:47.924Z,12.10
2019-03-31T01:35:19.788Z,12.00
2019-03-31T01:37:50.904Z,11.90
2019-03-31T01:40:22.578Z,11.80
2019-03-31T01:42:53.594Z,11.70
2019-03-31T01:45:25.973Z,11.70
2019-03-31T01:47:57.118Z,11.90
2019-03-31T01:50:28.925Z,11.70
2019-03-31T01:52:59.930Z,11.60
2019-03-31T01:55:31.011Z,11.50
2019-03-31T01:58:02.102Z,11.50
2019-03-31T02:00:55.924Z,11.40
2019-03-31T02:03:27.090Z,11.30
2019-03-31T02:05:58.255Z,11.20
2019-03-31T02:08:29.615Z,11.10
2019-03-31T02:11:00.716Z,11.00
2019-03-31T02:13:31.876Z,10.90
2019-03-31T02:16:03.258Z,10.80
2019-03-31T02:18:34.401Z,10.80
2019-03-31T02:21:05.578Z,10.80
2019-03-31T02:23:36.706Z,11.00
2019-03-31T02:26:08.197Z,11.10
2019-03-31T02:28:39.375Z,11.00
2019-03-31T02:31:10.473Z,10.90
2019-03-31T02:33:41.929Z,10.90
2019-03-31T02:36:13.051Z,10.90
2019-03-31T02:38:44.122Z,10.90
2019-03-31T02:41:15.343Z,10.80
2019-03-31T02:43:46.336Z,10.70
2019-03-31T02:46:17.857Z,10.60
2019-03-31T02:48:49.114Z,10.60
2019-03-31T02:51:23.081Z,10.40
2019-03-31T02:53:54.580Z,10.40
2019-03-31T02:56:27.267Z,10.40
2019-03-31T02:59:00.064Z,10.20
2019-03-31T03:01:33.749Z,10.20
2019-03-31T03:04:07.855Z,10.10
2019-03-31T03:06:37.926Z,9.90
2019-03-31T03:09:09.074Z,9.90
2019-03-31T03:11:43.216Z,9.80
2019-03-31T03:14:16.001Z,9.70
2019-03-31T03:16:48.634Z,9.70
2019-03-31T03:19:20.010Z,9.80
2019-03-31T03:21:51.619Z,9.80
2019-03-31T03:24:22.841Z,9.70
2019-03-31T03:26:54.460Z,9.70
2019-03-31T03:29:25.616Z,9.70
2019-03-31T03:31:56.802Z,9.70
2019-03-31T03:34:27.868Z,9.70
2019-03-31T03:36:59.031Z,9.70
2019-03-31T03:39:30.094Z,9.80
2019-03-31T03:42:01.430Z,9.70
2019-03-31T03:44:32.572Z,9.70
2019-03-31T03:47:03.738Z,9.80
2019-03-31T03:49:34.901Z,9.80
2019-03-31T03:52:06.865Z,9.80
2019-03-31T03:54:38.270Z,9.80
2019-03-31T03:57:09.403Z,9.90
2019-03-31T03:59:40.583Z,10.00
2019-03-31T04:02:11.728Z,9.80
2019-03-31T04:04:42.813Z,9.70
2019-03-31T04:07:14.334Z,9.40
2019-03-31T04:09:45.347Z,9.20
2019-03-31T04:12:16.608Z,9.20
2019-03-31T04:14:48.854Z,9.20
2019-03-31T04:17:19.921Z,9.30
2019-03-31T04:19:51.375Z,9.20
2019-03-31T04:22:23.033Z,9.20
2019-03-31T04:24:54.094Z,9.20
2019-03-31T04:27:25.118Z,9.20
2019-03-31T04:29:56.138Z,9.30
2019-03-31T04:32:27.745Z,9.30
2019-03-31T04:34:59.539Z,9.20
2019-03-31T04:37:30.640Z,9.20
2019-03-31T04:40:01.668Z,9.20
2019-03-31T04:42:33.136Z,9.20
2019-03-31T04:45:04.279Z,9.10
2019-03-31T04:47:35.387Z,9.10
2019-03-31T04:50:06.919Z,8.90
2019-03-31T04:52:39.256Z,8.80
2019-03-31T04:55:10.621Z,8.90
2019-03-31T04:57:41.705Z,8.80
2019-03-31T05:00:12.979Z,8.50
2019-03-31T05:02:44.587Z,8.40
2019-03-31T05:05:17.765Z,8.30
2019-03-31T05:07:49.487Z,8.30
2019-03-31T05:10:20.865Z,8.60
2019-03-31T05:12:52.065Z,8.70
2019-03-31T05:15:23.330Z,8.60
2019-03-31T05:17:54.357Z,8.50
2019-03-31T05:20:26.275Z,8.40
2019-03-31T05:22:57.353Z,8.50
2019-03-31T05:25:28.452Z,8.60
2019-03-31T05:27:59.571Z,8.70
2019-03-31T05:30:30.725Z,8.70
2019-03-31T05:33:02.223Z,8.60
2019-03-31T05:35:34.235Z,8.50
2019-03-31T05:38:05.649Z,8.60
2019-03-31T05:40:37.081Z,8.70
2019-03-31T05:43:08.271Z,8.80
2019-03-31T05:45:39.487Z,8.60
2019-03-31T05:48:10.547Z,8.80
2019-03-31T05:50:41.612Z,9.20
2019-03-31T05:53:12.787Z,9.30
2019-03-31T05:55:45.117Z,9.60
2019-03-31T05:58:16.775Z,10.00
2019-03-31T06:00:50.012Z,10.00
2019-03-31T06:03:21.276Z,10.30
2019-03-31T06:05:52.923Z,10.50
2019-03-31T06:08:23.977Z,10.60
2019-03-31T06:10:55.167Z,10.50
2019-03-31T06:13:27.633Z,10.60
2019-03-31T06:15:58.833Z,10.90
2019-03-31T06:18:29.867Z,11.30
2019-03-31T06:21:02.075Z,11.70
2019-03-31T06:23:33.497Z,11.80
2019-03-31T06:26:04.634Z,12.10
2019-03-31T06:28:35.708Z,11.90
2019-03-31T06:31:06.923Z,11.80
2019-03-31T06:33:38.010Z,11.90
2019-03-31T06:36:09.109Z,12.30
2019-03-31T06:38:40.565Z,12.70
2019-03-31T06:41:12.105Z,12.70
2019-03-31T06:43:43.162Z,12.60
2019-03-31T06:46:14.456Z,12.60
2019-03-31T06:48:45.437Z,12.70
2019-03-31T06:51:17.253Z,13.10
2019-03-31T06:53:48.315Z,13.50
2019-03-31T06:56:19.848Z,13.80
2019-03-31T06:58:51.696Z,14.00
2019-03-31T07:01:22.845Z,14.40
2019-03-31T07:03:54.142Z,14.30
2019-03-31T07:06:25.433Z,14.70
2019-03-31T07:08:56.523Z,14.90
2019-03-31T07:11:27.601Z,14.50
2019-03-31T07:13:58.787Z,14.20
2019-03-31T07:16:29.991Z,14.10
2019-03-31T07:19:00.884Z,14.20
2019-03-31T07:21:34.024Z,14.40
2019-03-31T07:26:37.127Z,14.00
2019-03-31T07:29:08.259Z,13.80
2019-03-31T07:31:39.196Z,13.80
2019-03-31T07:34:10.367Z,14.40
2019-03-31T07:36:41.503Z,14.70
2019-03-31T07:39:12.682Z,15.20
2019-03-31T07:41:44.071Z,15.60
2019-03-31T07:44:18.009Z,16.00
2019-03-31T07:46:52.227Z,15.80
2019-03-31T07:49:24.763Z,15.70
2019-03-31T07:51:56.798Z,15.90
2019-03-31T07:54:28.190Z,15.70
2019-03-31T07:56:59.278Z,15.90
2019-03-31T07:59:33.093Z,15.60
2019-03-31T08:02:02.966Z,15.30
2019-03-31T08:04:34.148Z,15.40
2019-03-31T08:07:05.356Z,15.00
2019-03-31T08:09:37.735Z,14.90
2019-03-31T08:12:11.005Z,14.80
2019-03-31T08:14:42.200Z,14.90
2019-03-31T08:17:13.424Z,15.20
2019-03-31T08:19:44.568Z,15.30
2019-03-31T08:22:15.744Z,15.50
2019-03-31T08:24:46.852Z,15.90
2019-03-31T08:27:18.235Z,15.70
2019-03-31T08:29:59.842Z,15.50
2019-03-31T08:32:22.316Z,15.60
2019-03-31T08:34:53.800Z,15.80
2019-03-31T08:37:24.952Z,16.00
2019-03-31T08:39:56.064Z,16.40
2019-03-31T08:42:27.201Z,16.90
2019-03-31T08:44:58.484Z,17.50
2019-03-31T08:47:29.710Z,17.90
2019-03-31T08:50:02.350Z,18.70
2019-03-31T08:52:33.734Z,18.80
2019-03-31T08:55:05.217Z,18.80
2019-03-31T08:57:36.752Z,19.10
2019-03-31T09:00:14.727Z,19.00
2019-03-31T09:02:46.092Z,18.90
2019-03-31T09:05:17.319Z,18.90
2019-03-31T09:07:48.529Z,19.40
2019-03-31T09:10:20.079Z,19.60
2019-03-31T09:12:51.750Z,19.60
2019-03-31T09:15:22.885Z,19.40
2019-03-31T09:17:54.607Z,19.30
2019-03-31T09:20:25.830Z,20.40
2019-03-31T09:22:57.929Z,20.00
2019-03-31T09:25:29.083Z,19.90
2019-03-31T09:28:00.269Z,19.80
2019-03-31T09:30:32.039Z,20.30
2019-03-31T09:33:04.753Z,20.60
2019-03-31T09:35:35.849Z,20.80
2019-03-31T09:38:06.960Z,21.00
2019-03-31T09:40:38.709Z,21.60
2019-03-31T09:43:10.043Z,22.30
2019-03-31T09:45:41.204Z,21.40
2019-03-31T09:48:12.309Z,21.60
2019-03-31T09:50:43.306Z,20.90
2019-03-31T09:53:14.588Z,21.40
2019-03-31T09:55:45.771Z,21.50
2019-03-31T09:58:16.980Z,22.40
2019-03-31T10:00:51.133Z,22.30
2019-03-31T10:03:22.813Z,21.60
2019-03-31T10:05:54.549Z,22.00
2019-03-31T10:08:25.997Z,22.60
2019-03-31T10:10:57.202Z,22.80
2019-03-31T10:13:28.379Z,21.90
2019-03-31T10:16:00.135Z,20.80
2019-03-31T10:18:32.981Z,19.40
2019-03-31T10:21:04.887Z,18.70
2019-03-31T10:23:35.955Z,18.50
2019-03-31T10:26:07.261Z,18.10
2019-03-31T10:28:38.382Z,17.50
2019-03-31T10:31:10.753Z,17.70
2019-03-31T10:33:41.965Z,17.80
2019-03-31T10:36:15.347Z,17.80
2019-03-31T10:38:47.292Z,17.80
2019-03-31T10:41:18.440Z,18.00
2019-03-31T10:43:49.629Z,18.10
2019-03-31T10:46:20.857Z,18.20
2019-03-31T10:48:52.085Z,18.60
2019-03-31T10:51:23.314Z,19.30
2019-03-31T10:53:54.419Z,19.70
2019-03-31T10:56:25.604Z,19.60
2019-03-31T10:58:57.465Z,19.20
2019-03-31T11:01:28.593Z,18.80
2019-03-31T11:03:59.709Z,19.00
2019-03-31T11:06:30.854Z,19.10
2019-03-31T11:09:02.031Z,19.10
2019-03-31T11:11:33.217Z,18.90
2019-03-31T11:14:04.879Z,19.10
2019-03-31T11:16:36.049Z,18.90
2019-03-31T11:19:07.168Z,18.60
2019-03-31T11:21:46.328Z,18.70
2019-03-31T11:24:17.275Z,18.80
2019-03-31T11:26:48.469Z,19.00
2019-03-31T11:29:19.633Z,18.70
2019-03-31T11:31:50.909Z,18.70
2019-03-31T11:34:22.136Z,18.90
2019-03-31T11:36:53.299Z,18.70
2019-03-31T11:39:24.405Z,18.60
2019-03-31T11:41:55.527Z,18.70
2019-03-31T11:44:27.859Z,18.70
2019-03-31T11:46:59.166Z,18.60
2019-03-31T11:49:30.261Z,18.70
2019-03-31T11:52:01.385Z,18.90
2019-03-31T11:54:32.579Z,19.00
2019-03-31T11:57:03.664Z,19.00
2019-03-31T11:59:34.843Z,19.30
2019-03-31T12:02:06.108Z,19.10
2019-03-31T12:04:37.277Z,19.00
2019-03-31T12:07:08.463Z,18.90
2019-03-31T12:09:39.534Z,18.80
2019-03-31T12:12:10.940Z,18.70
2019-03-31T12:14:42.147Z,19.00
2019-03-31T12:17:13.445Z,19.20
2019-03-31T12:19:44.575Z,19.20
2019-03-31T12:22:15.715Z,19.10
2019-03-31T12:24:46.858Z,18.90
2019-03-31T12:27:18.031Z,19.00
2019-03-31T12:29:49.178Z,18.70
2019-03-31T12:32:20.251Z,18.90
2019-03-31T12:34:51.454Z,19.00
2019-03-31T12:37:22.594Z,19.40
2019-03-31T12:39:53.614Z,19.20
2019-03-31T12:42:24.855Z,19.20
2019-03-31T12:44:55.942Z,18.90
2019-03-31T12:47:27.148Z,19.00
2019-03-31T12:49:58.781Z,19.10
2019-03-31T12:52:29.931Z,18.90
2019-03-31T12:55:01.056Z,18.70
2019-03-31T12:57:32.241Z,18.70
2019-03-31T13:00:03.687Z,18.70
2019-03-31T13:02:34.729Z,18.80
2019-03-31T13:05:06.034Z,18.90
2019-03-31T13:07:37.143Z,19.00
2019-03-31T13:10:08.342Z,19.00
2019-03-31T13:12:39.455Z,18.80
2019-03-31T13:15:10.838Z,18.90
2019-03-31T13:17:42.116Z,19.00
2019-03-31T13:20:13.704Z,18.90
2019-03-31T13:22:46.078Z,18.90
2019-03-31T13:25:17.518Z,18.70
2019-03-31T13:27:48.577Z,18.70
2019-03-31T13:30:21.961Z,18.80
2019-03-31T13:32:52.908Z,18.90
2019-03-31T13:35:23.968Z,18.80
2019-03-31T13:37:55.135Z,18.90
2019-03-31T13:40:26.269Z,19.00
2019-03-31T13:42:57.384Z,19.00
2019-03-31T13:45:28.875Z,19.20
2019-03-31T13:48:00.083Z,19.10
2019-03-31T13:50:31.216Z,19.20
2019-03-31T13:53:02.398Z,18.90
2019-03-31T13:55:33.590Z,18.90
2019-03-31T13:58:06.139Z,19.20
2019-03-31T14:00:43.139Z,19.20
2019-03-31T14:03:14.566Z,19.50
2019-03-31T14:05:45.731Z,19.60
2019-03-31T14:08:25.459Z,19.20
2019-03-31T14:10:50.286Z,19.20
2019-03-31T14:13:21.349Z,19.20
2019-03-31T14:15:52.534Z,19.20
2019-03-31T14:18:24.038Z,19.10
2019-03-31T14:20:55.403Z,19.20
2019-03-31T14:23:26.534Z,19.20
2019-03-31T14:25:57.837Z,19.10
2019-03-31T14:28:29.006Z,18.90
2019-03-31T14:31:00.569Z,19.00
2019-03-31T14:33:31.723Z,19.00
2019-03-31T14:36:02.941Z,19.00
2019-03-31T14:38:40.527Z,18.60
2019-03-31T14:41:07.672Z,18.20
2019-03-31T14:43:38.781Z,18.00
2019-03-31T14:46:10.644Z,17.80
2019-03-31T14:48:41.832Z,18.00
2019-03-31T14:51:13.286Z,17.70
2019-03-31T14:53:44.518Z,17.50
2019-03-31T14:56:15.745Z,17.20
2019-03-31T14:58:46.867Z,17.00
2019-03-31T15:01:21.154Z,16.60
2019-03-31T15:03:50.851Z,16.60
2019-03-31T15:06:22.552Z,16.50
2019-03-31T15:08:54.807Z,16.40
2019-03-31T15:11:26.085Z,16.40
2019-03-31T15:13:57.283Z,16.40
2019-03-31T15:16:28.475Z,16.40
2019-03-31T15:18:59.774Z,16.40
2019-03-31T15:21:31.655Z,16.50
2019-03-31T15:24:02.986Z,16.40
2019-03-31T15:26:34.235Z,16.40
2019-03-31T15:29:05.711Z,16.10
2019-03-31T15:31:36.940Z,15.90
2019-03-31T15:34:08.075Z,15.90
2019-03-31T15:36:39.499Z,15.90
2019-03-31T15:39:11.079Z,16.10
2019-03-31T15:41:42.745Z,15.90
2019-03-31T15:44:16.491Z,15.70
2019-03-31T15:46:46.512Z,15.40
2019-03-31T15:49:18.942Z,15.40
2019-03-31T15:51:50.429Z,15.50
2019-03-31T15:54:21.657Z,15.50
2019-03-31T15:56:55.243Z,15.50
2019-03-31T15:59:26.914Z,15.30
2019-03-31T16:01:58.086Z,15.20
2019-03-31T16:04:29.204Z,15.00
2019-03-31T16:07:00.419Z,15.00
2019-03-31T16:09:30.749Z,15.10
2019-03-31T16:12:01.086Z,14.90
2019-03-31T16:14:31.585Z,14.80
2019-03-31T16:17:02.426Z,14.80
2019-03-31T16:19:33.066Z,14.70
2019-03-31T16:22:03.311Z,14.80
2019-03-31T16:24:42.283Z,14.80
2019-03-31T16:27:12.890Z,14.60
2019-03-31T16:29:43.152Z,14.60
2019-03-31T16:32:13.821Z,14.50
2019-03-31T16:34:44.004Z,14.60
2019-03-31T16:37:14.310Z,14.50
2019-03-31T16:39:44.612Z,14.50
2019-03-31T16:42:15.195Z,14.60
2019-03-31T16:44:57.447Z,14.60
2019-03-31T16:47:18.299Z,14.60
2019-03-31T16:49:48.640Z,14.70
2019-03-31T16:52:20.064Z,14.70
2019-03-31T16:54:50.914Z,14.50
2019-03-31T16:57:21.442Z,14.40
2019-03-31T16:59:51.727Z,14.40
2019-03-31T17:02:22.055Z,14.40
2019-03-31T17:04:52.356Z,14.50
2019-03-31T17:07:23.104Z,14.40
2019-03-31T17:09:53.528Z,14.40
2019-03-31T17:12:23.870Z,14.30
2019-03-31T17:14:54.723Z,14.30
2019-03-31T17:17:26.033Z,14.20
2019-03-31T17:19:56.412Z,14.10
2019-03-31T17:22:26.745Z,14.00
2019-03-31T17:24:57.290Z,13.80
2019-03-31T17:27:27.738Z,13.80
2019-03-31T17:29:58.054Z,13.60
2019-03-31T17:32:28.541Z,13.50
2019-03-31T17:34:59.120Z,13.50
2019-03-31T17:37:29.579Z,13.50
2019-03-31T17:40:06.544Z,13.20
2019-03-31T17:42:32.059Z,13.20
2019-03-31T17:45:02.225Z,13.10
2019-03-31T17:47:33.208Z,13.00
2019-03-31T17:50:03.710Z,13.00
2019-03-31T17:52:34.011Z,12.80
2019-03-31T17:55:06.076Z,12.90
2019-03-31T17:57:36.478Z,12.80
2019-03-31T18:00:09.187Z,12.70
2019-03-31T18:02:39.507Z,12.60
2019-03-31T18:05:10.302Z,12.30
2019-03-31T18:07:40.570Z,12.10
2019-03-31T18:10:20.660Z,12.20
2019-03-31T18:12:43.201Z,12.10
2019-03-31T18:15:14.073Z,12.20
2019-03-31T18:17:44.455Z,12.10
2019-03-31T18:20:14.822Z,12.10
2019-03-31T18:22:45.115Z,11.90
2019-03-31T18:25:16.715Z,11.90
2019-03-31T18:27:47.047Z,11.90
2019-03-31T18:30:17.932Z,11.70
2019-03-31T18:32:48.619Z,11.70
2019-03-31T18:35:19.030Z,11.70
2019-03-31T18:37:49.632Z,11.70
2019-03-31T18:40:34.330Z,11.70
2019-03-31T18:42:53.026Z,11.60
2019-03-31T18:45:23.340Z,11.60
2019-03-31T18:47:53.637Z,11.60
2019-03-31T18:50:23.931Z,11.60
2019-03-31T18:52:54.636Z,11.60
2019-03-31T18:55:51.901Z,11.50
2019-03-31T18:58:43.989Z,11.50
2019-03-31T19:01:26.853Z,11.50
2019-03-31T19:04:14.851Z,11.40
2019-03-31T19:07:03.934Z,11.40
2019-03-31T19:09:51.829Z,11.20
2019-03-31T19:12:39.877Z,11.30
2019-03-31T19:15:29.306Z,11.10
2019-03-31T19:18:30.873Z,11.10
2019-03-31T19:21:22.332Z,11.10
2019-03-31T19:24:05.495Z,11.00
2019-03-31T19:26:53.340Z,11.00
2019-03-31T19:30:00.759Z,10.90
2019-03-31T19:32:47.595Z,11.00
2019-03-31T19:35:33.328Z,11.00
2019-03-31T19:38:14.268Z,10.90
2019-03-31T19:41:03.362Z,10.90
2019-03-31T19:43:52.494Z,10.80
2019-03-31T19:46:42.509Z,10.90
2019-03-31T19:49:27.092Z,10.80
2019-03-31T19:52:31.072Z,10.80
2019-03-31T19:55:23.451Z,10.70
2019-03-31T19:58:04.553Z,10.60
2019-03-31T20:00:43.697Z,10.60
2019-03-31T20:03:29.788Z,10.60
2019-03-31T20:06:17.732Z,10.50
2019-03-31T20:08:53.887Z,10.50
2019-03-31T20:11:49.547Z,10.50
2019-03-31T20:14:42.830Z,10.50
2019-03-31T20:17:32.071Z,10.30
2019-03-31T20:20:20.640Z,10.30
2019-03-31T20:23:12.875Z,10.30
2019-03-31T20:26:04.854Z,10.20
2019-03-31T20:28:48.595Z,10.30
2019-03-31T20:31:37.847Z,10.30
2019-03-31T20:34:29.849Z,10.30
2019-03-31T20:37:17.853Z,10.30
2019-03-31T20:40:10.230Z,10.30
2019-03-31T20:43:02.495Z,10.10
2019-03-31T20:45:33.933Z,10.10
2019-03-31T20:48:04.272Z,10.00
2019-03-31T20:50:34.688Z,10.10
2019-03-31T20:53:05.022Z,10.10
2019-03-31T20:55:35.424Z,10.00
2019-03-31T20:58:05.813Z,10.00
2019-03-31T21:00:36.438Z,10.00
2019-03-31T21:03:07.429Z,9.90
2019-03-31T21:05:38.106Z,9.80
2019-03-31T21:08:08.479Z,9.90
2019-03-31T21:10:38.704Z,9.90
2019-03-31T21:13:09.091Z,9.80
2019-03-31T21:15:39.463Z,9.70
2019-03-31T21:18:09.863Z,10.00
2019-03-31T21:20:40.574Z,9.90
2019-03-31T21:23:10.869Z,9.90
2019-03-31T21:25:41.188Z,9.70
2019-03-31T21:28:11.576Z,9.60
2019-03-31T21:30:41.884Z,9.60
2019-03-31T21:33:12.567Z,9.60
2019-03-31T21:35:43.148Z,9.40
2019-03-31T21:38:13.441Z,9.40
2019-03-31T21:40:43.723Z,9.40
2019-03-31T21:43:14.048Z,9.40
2019-03-31T21:45:45.454Z,9.50
2019-03-31T21:48:15.779Z,9.40
2019-03-31T21:50:46.225Z,9.40
2019-03-31T21:53:16.530Z,9.30
2019-03-31T21:55:46.994Z,9.30
2019-03-31T21:58:17.369Z,9.10
2019-03-31T22:00:57.451Z,9.20
2019-03-31T22:03:28.298Z,9.20
2019-03-31T22:05:58.734Z,9.20
2019-03-31T22:08:29.040Z,9.20
2019-03-31T22:10:59.369Z,9.20
2019-03-31T22:13:29.748Z,9.00
2019-03-31T22:16:00.019Z,8.90
2019-03-31T22:18:30.404Z,9.00
2019-03-31T22:21:00.719Z,9.10
2019-03-31T22:23:31.049Z,9.00
2019-03-31T22:26:01.365Z,9.00
2019-03-31T22:28:32.394Z,8.90
2019-03-31T22:31:02.912Z,9.00
2019-03-31T22:33:33.224Z,9.10
2019-03-31T22:36:21.979Z,8.90
2019-03-31T22:38:55.015Z,9.00
2019-03-31T22:41:25.530Z,8.90
2019-03-31T22:43:56.108Z,9.00
2019-03-31T22:46:26.479Z,8.90
2019-03-31T22:48:57.170Z,8.80
2019-03-31T22:51:27.541Z,8.90
2019-03-31T22:53:57.880Z,8.90
2019-03-31T22:56:28.863Z,8.90
2019-03-31T22:58:59.339Z,9.00
2019-03-31T23:01:29.713Z,8.90
2019-03-31T23:04:00.037Z,9.00
2019-03-31T23:06:30.438Z,9.10
2019-03-31T23:09:00.771Z,9.00
2019-03-31T23:11:31.166Z,8.90
2019-03-31T23:14:01.484Z,8.90
2019-03-31T23:16:32.171Z,9.00
2019-03-31T23:19:02.481Z,8.80
2019-03-31T23:21:32.821Z,8.70
2019-03-31T23:24:03.151Z,8.60
2019-03-31T23:26:33.832Z,8.60
2019-03-31T23:29:04.145Z,8.50
2019-03-31T23:31:34.679Z,8.60
2019-03-31T23:34:05.196Z,8.60
2019-03-31T23:36:35.596Z,8.50
2019-03-31T23:39:08.209Z,8.60
2019-03-31T23:41:38.668Z,8.80
2019-03-31T23:44:08.938Z,8.60
2019-03-31T23:46:39.488Z,8.50
2019-03-31T23:49:09.798Z,8.60
2019-03-31T23:51:40.140Z,8.50
2019-03-31T23:54:10.468Z,8.40
2019-03-31T23:56:41.417Z,8.50
2019-03-31T23:59:11.735Z,8.40
